Time;durP1;ratioP1;P1;durP2;ratioP2;P2;SDS_P1;SDS_P2;PMS_P1;PMS_P2;Temp;Humidity;BMP_temperature;BMP_pressure;BME280_temperature;BME280_humidity;BME280_pressure;Samples;Min_cycle;Max_cycle;Signal;HPM_P1;HPM_P2
2023/08/18 00:00:43;;;;;;;7.28;3.90;;;17.60;99.90;;;;;;5022273;28;20034;-62
2023/08/18 00:03:09;;;;;;;7.95;4.90;;;17.50;99.90;;;;;;4996188;28;20379;-62
2023/08/18 00:05:34;;;;;;;6.13;3.88;;;17.50;99.90;;;;;;5003134;28;20116;-64
2023/08/18 00:08:00;;;;;;;11.13;4.93;;;17.50;99.90;;;;;;5012957;28;20030;-63
2023/08/18 00:10:25;;;;;;;9.60;4.40;;;17.50;99.90;;;;;;4993638;28;20049;-62
2023/08/18 00:12:51;;;;;;;13.05;4.43;;;17.50;99.90;;;;;;5008579;28;20109;-62
2023/08/18 00:15:17;;;;;;;8.60;4.28;;;17.50;99.90;;;;;;4994730;28;20476;-63
2023/08/18 00:17:42;;;;;;;11.63;4.78;;;17.50;99.90;;;;;;5024295;28;20092;-61
2023/08/18 00:20:09;;;;;;;8.27;4.80;;;17.50;99.90;;;;;;5011496;28;20064;-61
2023/08/18 00:22:34;;;;;;;10.95;4.97;;;17.50;99.90;;;;;;5016659;28;20411;-62
2023/08/18 00:25:00;;;;;;;11.05;4.97;;;17.50;99.90;;;;;;4996197;28;20053;-61
2023/08/18 00:27:26;;;;;;;13.07;5.50;;;17.50;99.90;;;;;;5012933;28;20100;-61
2023/08/18 00:29:51;;;;;;;10.75;4.57;;;17.50;99.90;;;;;;5012502;28;20069;-62
2023/08/18 00:32:17;;;;;;;10.13;4.95;;;17.50;99.90;;;;;;5018950;28;20044;-65
2023/08/18 00:34:43;;;;;;;9.07;5.18;;;17.50;99.90;;;;;;5012317;28;20040;-62
2023/08/18 00:37:09;;;;;;;9.65;5.10;;;17.50;99.90;;;;;;5013589;28;20080;-61
2023/08/18 00:39:34;;;;;;;10.30;5.30;;;17.40;99.90;;;;;;5010457;28;20447;-61
2023/08/18 00:42:00;;;;;;;10.63;5.18;;;17.40;99.90;;;;;;4994462;28;20037;-62
2023/08/18 00:44:26;;;;;;;9.77;5.47;;;17.40;99.90;;;;;;5021679;28;20423;-62
2023/08/18 00:46:52;;;;;;;10.05;5.30;;;17.40;99.90;;;;;;5002706;28;20030;-63
2023/08/18 00:49:18;;;;;;;10.10;5.38;;;17.40;99.90;;;;;;5004654;28;20186;-61
2023/08/18 00:51:45;;;;;;;11.00;5.22;;;17.40;99.90;;;;;;5022481;28;20042;-61
2023/08/18 00:54:12;;;;;;;9.75;5.18;;;17.40;99.90;;;;;;4992300;28;20480;-61
2023/08/18 00:56:39;;;;;;;8.75;4.93;;;17.40;99.90;;;;;;5016409;28;20445;-63
2023/08/18 00:59:06;;;;;;;7.50;4.60;;;17.40;99.90;;;;;;5000907;28;20091;-62
2023/08/18 01:01:33;;;;;;;9.82;4.60;;;17.40;99.90;;;;;;4998625;28;20448;-61
2023/08/18 01:03:59;;;;;;;9.15;4.40;;;17.40;99.90;;;;;;5020161;28;20520;-61
2023/08/18 01:06:25;;;;;;;6.85;4.45;;;17.40;99.90;;;;;;4993968;28;20045;-62
2023/08/18 01:08:51;;;;;;;11.75;5.25;;;17.30;99.90;;;;;;5004117;28;20045;-62
2023/08/18 01:11:39;;;;;;;9.80;4.60;;;17.30;99.90;;;;;;5008445;28;20420;-62
2023/08/18 01:14:13;;;;;;;8.15;4.20;;;17.30;99.90;;;;;;4989032;28;20492;-62
2023/08/18 01:16:45;;;;;;;8.82;4.55;;;17.30;99.90;;;;;;5002808;28;20113;-62
2023/08/18 01:19:14;;;;;;;9.15;4.75;;;17.30;99.90;;;;;;5017261;28;20041;-63
2023/08/18 01:21:41;;;;;;;9.70;4.75;;;17.30;99.90;;;;;;4996480;28;20072;-62
2023/08/18 01:24:06;;;;;;;8.57;4.00;;;17.30;99.90;;;;;;5010628;28;20369;-62
2023/08/18 01:26:32;;;;;;;8.75;4.45;;;17.30;99.90;;;;;;5026933;28;20110;-62
2023/08/18 01:28:58;;;;;;;11.88;4.78;;;17.30;99.90;;;;;;5008232;28;20034;-61
2023/08/18 01:31:30;;;;;;;8.95;4.47;;;17.30;99.90;;;;;;4992557;28;20045;-62
2023/08/18 01:34:04;;;;;;;9.32;4.47;;;17.30;99.90;;;;;;4987334;28;20048;-62
2023/08/18 01:36:41;;;;;;;10.23;4.78;;;17.30;99.90;;;;;;4993379;28;20494;-61
2023/08/18 01:39:08;;;;;;;11.35;4.75;;;17.30;99.90;;;;;;4999192;28;20033;-61
2023/08/18 01:41:35;;;;;;;12.80;4.50;;;17.30;99.90;;;;;;5019286;28;20038;-62
2023/08/18 01:44:01;;;;;;;13.40;4.80;;;17.20;99.90;;;;;;5008494;28;20466;-63
2023/08/18 01:46:26;;;;;;;11.00;4.88;;;17.20;99.90;;;;;;4991272;28;20045;-61
2023/08/18 01:48:52;;;;;;;10.02;4.80;;;17.20;99.90;;;;;;5009584;28;20029;-61
2023/08/18 01:51:18;;;;;;;13.60;4.70;;;17.20;99.90;;;;;;5011640;28;20033;-62
2023/08/18 01:53:43;;;;;;;14.77;4.63;;;17.20;99.90;;;;;;4996761;28;20037;-62
2023/08/18 01:56:09;;;;;;;15.23;4.30;;;17.20;99.90;;;;;;5009912;28;20040;-61
2023/08/18 01:58:35;;;;;;;8.88;4.05;;;17.20;99.90;;;;;;5006724;28;20029;-62
2023/08/18 02:01:00;;;;;;;9.80;4.43;;;17.20;99.90;;;;;;4995136;28;20029;-62
2023/08/18 02:03:27;;;;;;;11.95;4.35;;;17.20;99.90;;;;;;5009335;28;20138;-63
2023/08/18 02:05:54;;;;;;;15.43;4.45;;;17.20;99.90;;;;;;5005897;28;20132;-62
2023/08/18 02:08:21;;;;;;;14.15;4.13;;;17.20;99.90;;;;;;5012128;28;20041;-62
2023/08/18 02:10:46;;;;;;;10.32;3.95;;;17.20;99.90;;;;;;5001261;28;20034;-62
2023/08/18 02:13:13;;;;;;;9.38;3.90;;;17.20;99.90;;;;;;4992490;28;20436;-64
2023/08/18 02:15:38;;;;;;;8.45;4.10;;;17.20;99.90;;;;;;5018863;28;20053;-62
2023/08/18 02:18:04;;;;;;;9.55;4.22;;;17.20;99.90;;;;;;4979524;28;20399;-64
2023/08/18 02:20:30;;;;;;;10.40;4.05;;;17.20;99.90;;;;;;4995247;28;20120;-61
2023/08/18 02:22:56;;;;;;;9.30;3.75;;;17.20;99.90;;;;;;5009426;28;20033;-62
2023/08/18 02:25:22;;;;;;;8.43;4.00;;;17.20;99.90;;;;;;5007154;28;20050;-61
2023/08/18 02:27:48;;;;;;;9.90;4.32;;;17.20;99.90;;;;;;5016862;28;20042;-61
2023/08/18 02:30:14;;;;;;;6.60;3.60;;;17.20;99.90;;;;;;5020407;28;20620;-62
2023/08/18 02:32:40;;;;;;;7.00;3.85;;;17.20;99.90;;;;;;5006279;28;20039;-61
2023/08/18 02:35:06;;;;;;;9.63;4.15;;;17.20;99.90;;;;;;4992442;28;20046;-61
2023/08/18 02:37:31;;;;;;;10.93;4.00;;;17.10;99.90;;;;;;5009060;28;20109;-62
2023/08/18 02:39:58;;;;;;;6.93;3.58;;;17.20;99.90;;;;;;5022968;28;20116;-62
2023/08/18 02:42:23;;;;;;;6.95;3.63;;;17.10;99.90;;;;;;5030878;28;20050;-62
2023/08/18 02:44:49;;;;;;;9.48;3.70;;;17.10;99.90;;;;;;5005549;28;20125;-62
2023/08/18 02:47:16;;;;;;;12.02;3.60;;;17.20;99.90;;;;;;4994176;28;20050;-62
2023/08/18 02:49:42;;;;;;;9.32;3.67;;;17.10;99.90;;;;;;5029939;28;20037;-62
2023/08/18 02:52:09;;;;;;;10.48;3.70;;;17.10;99.90;;;;;;5013173;28;20034;-61
2023/08/18 02:54:35;;;;;;;10.52;4.03;;;17.10;99.90;;;;;;5013680;28;20069;-64
2023/08/18 02:57:01;;;;;;;8.50;4.05;;;17.10;99.90;;;;;;4998994;28;20492;-62
2023/08/18 02:59:27;;;;;;;6.85;3.55;;;17.10;99.90;;;;;;5014846;28;20271;-62
2023/08/18 03:01:52;;;;;;;6.68;4.13;;;17.10;99.90;;;;;;5014891;28;20030;-61
2023/08/18 03:04:18;;;;;;;5.95;3.47;;;17.10;99.90;;;;;;5015574;28;20117;-62
2023/08/18 03:06:44;;;;;;;11.57;4.00;;;17.10;99.90;;;;;;4990515;28;20539;-63
2023/08/18 03:09:09;;;;;;;6.85;3.67;;;17.10;99.90;;;;;;4998548;28;20038;-62
2023/08/18 03:11:35;;;;;;;7.28;3.53;;;17.10;99.90;;;;;;5006112;28;20478;-62
2023/08/18 03:14:01;;;;;;;7.03;3.95;;;17.10;99.90;;;;;;5016517;28;20480;-62
2023/08/18 03:16:26;;;;;;;8.00;3.80;;;17.10;99.90;;;;;;5006359;28;20479;-61
2023/08/18 03:18:52;;;;;;;8.82;3.83;;;17.20;99.90;;;;;;5011862;28;20088;-62
2023/08/18 03:21:18;;;;;;;7.28;4.03;;;17.10;99.90;;;;;;4969252;28;20035;-63
2023/08/18 03:23:43;;;;;;;7.68;4.82;;;17.10;99.90;;;;;;4985378;28;20104;-61
2023/08/18 03:26:10;;;;;;;12.15;4.38;;;17.10;99.90;;;;;;4986341;28;20045;-62
2023/08/18 03:28:36;;;;;;;11.90;4.18;;;17.10;99.90;;;;;;5001517;28;20041;-61
2023/08/18 03:31:04;;;;;;;10.27;4.43;;;17.10;99.90;;;;;;5023232;28;20030;-62
2023/08/18 03:33:30;;;;;;;9.07;4.50;;;17.10;99.90;;;;;;5011553;28;20038;-62
2023/08/18 03:35:56;;;;;;;8.13;4.50;;;17.10;99.90;;;;;;4990827;28;20037;-62
2023/08/18 03:38:22;;;;;;;9.35;4.32;;;17.10;99.90;;;;;;5008845;28;20092;-61
2023/08/18 03:40:49;;;;;;;11.48;4.97;;;17.10;99.90;;;;;;4997175;28;20042;-61
2023/08/18 03:43:15;;;;;;;11.32;4.65;;;17.10;99.90;;;;;;5005620;28;20052;-62
2023/08/18 03:45:41;;;;;;;8.07;4.43;;;17.10;99.90;;;;;;4996784;28;20384;-62
2023/08/18 03:48:07;;;;;;;10.60;4.80;;;17.10;99.90;;;;;;5011798;28;20045;-61
2023/08/18 03:50:32;;;;;;;8.02;4.60;;;17.10;99.90;;;;;;5016560;28;20291;-62
2023/08/18 03:52:58;;;;;;;8.13;4.57;;;17.10;99.90;;;;;;4995807;28;20030;-61
2023/08/18 03:55:24;;;;;;;11.85;5.60;;;17.10;99.90;;;;;;4989193;28;20080;-62
2023/08/18 03:57:49;;;;;;;13.90;5.13;;;17.10;99.90;;;;;;4989783;28;20045;-62
2023/08/18 04:00:17;;;;;;;9.93;5.38;;;17.10;99.90;;;;;;4995196;28;20131;-63
2023/08/18 04:02:43;;;;;;;9.20;5.43;;;17.10;99.90;;;;;;5002775;28;20088;-64
2023/08/18 04:05:09;;;;;;;9.75;4.97;;;17.00;99.90;;;;;;5011339;28;20073;-62
2023/08/18 04:07:35;;;;;;;12.30;5.65;;;17.10;99.90;;;;;;5008252;28;20421;-62
2023/08/18 04:10:00;;;;;;;13.68;5.15;;;17.00;99.90;;;;;;5011815;28;20065;-62
2023/08/18 04:12:26;;;;;;;11.85;5.32;;;17.00;99.90;;;;;;5013087;28;20176;-61
2023/08/18 04:14:53;;;;;;;11.55;5.50;;;17.00;99.90;;;;;;5015764;28;20100;-61
2023/08/18 04:17:18;;;;;;;11.23;5.57;;;17.00;99.90;;;;;;4990872;28;20038;-61
2023/08/18 04:19:44;;;;;;;12.75;5.78;;;17.00;99.90;;;;;;4998992;28;20061;-62
2023/08/18 04:22:10;;;;;;;8.02;5.15;;;17.00;99.90;;;;;;4983537;28;20052;-61
2023/08/18 04:24:35;;;;;;;11.82;5.70;;;17.00;99.90;;;;;;4979524;28;20038;-61
2023/08/18 04:27:01;;;;;;;10.60;5.88;;;17.00;99.90;;;;;;4981095;28;20391;-62
2023/08/18 04:29:27;;;;;;;10.50;5.75;;;17.00;99.90;;;;;;5016024;28;20051;-62
2023/08/18 04:31:54;;;;;;;11.55;5.47;;;17.00;99.90;;;;;;5029411;28;20091;-61
2023/08/18 04:34:19;;;;;;;10.77;5.40;;;17.00;99.90;;;;;;5015125;28;20029;-62
2023/08/18 04:36:45;;;;;;;9.38;6.07;;;17.10;99.90;;;;;;4986949;28;20040;-61
2023/08/18 04:39:11;;;;;;;11.85;5.40;;;17.00;99.90;;;;;;5024823;28;20087;-62
2023/08/18 04:41:37;;;;;;;13.10;5.80;;;17.00;99.90;;;;;;5014266;28;20503;-61
2023/08/18 04:44:03;;;;;;;13.55;5.97;;;17.00;99.90;;;;;;5019868;28;20045;-62
2023/08/18 04:46:30;;;;;;;10.65;5.60;;;17.00;99.90;;;;;;5014235;28;20507;-61
2023/08/18 04:48:56;;;;;;;9.00;5.15;;;17.00;99.90;;;;;;5011893;28;20100;-61
2023/08/18 04:51:22;;;;;;;11.90;6.05;;;17.00;99.90;;;;;;4996536;28;20085;-62
2023/08/18 04:53:48;;;;;;;10.68;5.75;;;17.00;99.90;;;;;;5011413;28;20049;-61
2023/08/18 04:56:15;;;;;;;11.13;6.20;;;17.10;99.90;;;;;;4992492;28;20034;-62
2023/08/18 04:58:40;;;;;;;12.82;6.20;;;17.00;99.90;;;;;;4992896;28;20294;-62
2023/08/18 05:01:06;;;;;;;13.10;6.35;;;17.10;99.90;;;;;;5010458;28;20362;-62
2023/08/18 05:03:33;;;;;;;14.10;6.03;;;17.10;99.90;;;;;;4989812;28;20186;-62
2023/08/18 05:06:12;;;;;;;11.18;5.60;;;17.10;99.90;;;;;;4999473;28;20069;-62
2023/08/18 05:08:40;;;;;;;12.15;6.13;;;17.10;99.90;;;;;;4999118;28;20041;-61
2023/08/18 05:11:08;;;;;;;13.73;5.63;;;17.10;99.90;;;;;;5027035;28;20415;-62
2023/08/18 05:13:40;;;;;;;12.73;6.30;;;17.10;99.90;;;;;;4983169;28;20041;-62
2023/08/18 05:16:06;;;;;;;11.23;5.88;;;17.10;99.90;;;;;;5005459;28;20042;-62
2023/08/18 05:18:32;;;;;;;13.90;6.43;;;17.10;99.90;;;;;;5009410;28;20030;-63
2023/08/18 05:20:59;;;;;;;14.98;6.35;;;17.10;99.90;;;;;;5011585;28;20081;-62
2023/08/18 05:23:25;;;;;;;11.43;5.68;;;17.10;99.90;;;;;;4986342;28;20495;-61
2023/08/18 05:25:54;;;;;;;11.35;5.90;;;17.10;99.90;;;;;;5006596;28;20175;-62
2023/08/18 05:28:55;;;;;;;11.27;5.78;;;17.10;99.90;;;;;;5023580;22;20491;-77
2023/08/18 05:31:20;;;;;;;13.75;5.97;;;17.10;99.90;;;;;;5009259;28;20042;-75
2023/08/18 05:33:46;;;;;;;13.25;6.20;;;17.10;99.90;;;;;;5008276;28;20121;-76
2023/08/18 05:36:12;;;;;;;11.05;5.57;;;17.20;99.90;;;;;;4993737;28;20095;-76
2023/08/18 05:38:37;;;;;;;8.60;5.35;;;17.10;99.90;;;;;;4992669;28;20294;-75
2023/08/18 05:41:14;;;;;;;10.00;5.32;;;17.20;99.90;;;;;;4998041;28;20086;-75
2023/08/18 05:43:43;;;;;;;12.05;5.40;;;17.20;99.90;;;;;;4993912;28;20493;-75
2023/08/18 05:46:18;;;;;;;9.32;5.68;;;17.20;99.90;;;;;;5008347;28;20040;-76
2023/08/18 05:48:49;;;;;;;8.85;5.35;;;17.30;99.90;;;;;;5010621;28;20124;-76
2023/08/18 05:51:16;;;;;;;11.18;5.72;;;17.30;99.90;;;;;;4998153;28;20131;-76
2023/08/18 05:54:06;;;;;;;8.02;5.40;;;17.30;99.90;;;;;;4995542;28;20041;-76
2023/08/18 05:56:41;;;;;;;13.65;5.85;;;17.30;99.90;;;;;;5012442;28;20025;-74
2023/08/18 05:59:36;;;;;;;13.60;5.93;;;17.30;99.90;;;;;;5029842;28;20069;-74
2023/08/18 06:06:01;;;;;;;11.05;5.68;;;17.40;99.90;;;;;;4935714;29;20043;-76
2023/08/18 06:08:33;;;;;;;10.95;5.80;;;17.40;99.90;;;;;;4917185;29;20043;-75
2023/08/18 06:10:59;;;;;;;11.95;5.80;;;17.40;99.90;;;;;;4902041;29;20051;-76
2023/08/18 06:17:41;;;;;;;10.80;5.80;;;17.40;99.90;;;;;;4946119;28;20067;-76
2023/08/18 06:20:09;;;;;;;8.07;5.78;;;17.40;99.90;;;;;;4915110;29;20031;-75
2023/08/18 06:22:35;;;;;;;11.30;6.03;;;17.40;99.90;;;;;;4957209;28;20035;-75
2023/08/18 06:25:08;;;;;;;9.88;5.75;;;17.40;99.90;;;;;;5011762;28;20037;-76
2023/08/18 06:27:36;;;;;;;9.07;6.30;;;17.50;99.90;;;;;;4995893;28;20128;-76
2023/08/18 06:30:03;;;;;;;11.40;6.07;;;17.50;99.90;;;;;;5011155;28;20041;-75
2023/08/18 06:32:28;;;;;;;10.57;5.90;;;17.50;99.90;;;;;;5012082;28;20060;-76
2023/08/18 06:34:54;;;;;;;14.40;5.93;;;17.50;99.90;;;;;;5013533;28;20033;-76
2023/08/18 06:37:24;;;;;;;10.15;5.70;;;17.50;99.90;;;;;;5029377;28;20037;-76
2023/08/18 06:39:54;;;;;;;12.27;5.82;;;17.60;99.90;;;;;;5009079;28;20041;-76
2023/08/18 06:42:20;;;;;;;10.50;5.50;;;17.60;99.90;;;;;;5010541;28;20468;-76
2023/08/18 06:44:47;;;;;;;13.05;5.95;;;17.60;99.90;;;;;;5011636;28;20041;-75
2023/08/18 06:47:14;;;;;;;11.65;5.60;;;17.70;99.90;;;;;;5011553;28;20041;-76
2023/08/18 06:49:40;;;;;;;10.50;5.97;;;17.70;99.90;;;;;;5013370;28;20535;-77
2023/08/18 06:52:06;;;;;;;10.07;5.45;;;17.70;99.90;;;;;;5026327;28;20040;-75
2023/08/18 06:54:32;;;;;;;12.23;6.10;;;17.80;99.90;;;;;;5029362;28;20037;-76
2023/08/18 06:57:00;;;;;;;11.32;6.03;;;17.80;99.90;;;;;;4995865;28;20033;-76
2023/08/18 06:59:33;;;;;;;9.68;5.90;;;17.80;99.90;;;;;;5013929;28;20983;-76
2023/08/18 07:01:58;;;;;;;9.98;5.90;;;17.80;99.90;;;;;;5032676;28;20567;-75
2023/08/18 07:04:24;;;;;;;11.15;5.95;;;17.80;99.90;;;;;;4998175;28;20069;-76
2023/08/18 07:06:50;;;;;;;10.85;5.68;;;17.80;99.90;;;;;;5014860;28;20216;-75
2023/08/18 07:09:15;;;;;;;11.25;6.63;;;17.90;99.90;;;;;;5032318;28;20053;-75
2023/08/18 07:11:45;;;;;;;9.85;6.18;;;17.90;99.90;;;;;;5009350;28;20044;-75
2023/08/18 07:14:17;;;;;;;10.73;6.57;;;17.90;99.90;;;;;;5011347;28;20046;-75
2023/08/18 07:16:44;;;;;;;;;;;18.00;99.90;;;;;;5013811;28;20049;-76
2023/08/18 07:19:10;;;;;;;12.98;6.85;;;18.00;99.90;;;;;;5012606;28;19921;-76
2023/08/18 07:21:37;;;;;;;13.77;6.95;;;18.00;99.90;;;;;;5014021;28;20112;-76
2023/08/18 07:24:03;;;;;;;13.18;6.80;;;18.10;99.90;;;;;;5029593;28;20509;-76
2023/08/18 07:26:31;;;;;;;14.35;6.90;;;18.10;99.90;;;;;;5035074;28;20049;-75
2023/08/18 07:28:57;;;;;;;9.85;7.00;;;18.10;99.90;;;;;;5017695;28;20048;-75
2023/08/18 07:31:23;;;;;;;10.30;6.78;;;18.10;99.90;;;;;;5034104;28;20048;-75
2023/08/18 07:33:51;;;;;;;14.40;7.50;;;18.10;99.90;;;;;;5016425;28;20045;-76
2023/08/18 07:36:17;;;;;;;12.05;7.30;;;18.10;99.90;;;;;;5031426;28;20033;-76
2023/08/18 07:38:46;;;;;;;12.32;6.82;;;18.20;99.90;;;;;;5009096;28;20053;-76
2023/08/18 07:41:11;;;;;;;12.55;7.80;;;18.20;99.90;;;;;;5000166;28;20095;-75
2023/08/18 07:43:37;;;;;;;12.82;6.78;;;18.30;99.90;;;;;;5017298;28;20456;-76
2023/08/18 07:46:02;;;;;;;15.02;7.05;;;18.30;99.90;;;;;;5002689;28;20527;-76
2023/08/18 07:48:28;;;;;;;10.68;6.68;;;18.30;99.90;;;;;;5036470;28;20057;-75
2023/08/18 07:50:57;;;;;;;16.25;7.90;;;18.40;99.90;;;;;;5036976;28;20120;-76
2023/08/18 07:53:23;;;;;;;12.35;7.32;;;18.40;99.90;;;;;;5016016;28;20099;-76
2023/08/18 07:56:03;;;;;;;12.07;7.15;;;18.40;99.90;;;;;;5011515;28;20033;-76
2023/08/18 07:58:30;;;;;;;11.35;6.78;;;18.40;99.90;;;;;;5001667;28;20033;-77
2023/08/18 08:00:56;;;;;;;13.63;6.90;;;18.50;99.90;;;;;;4996822;28;20485;-76
2023/08/18 08:03:24;;;;;;;12.85;6.35;;;18.50;99.90;;;;;;5035183;28;20058;-75
2023/08/18 08:05:50;;;;;;;11.77;6.65;;;18.60;99.90;;;;;;5021953;28;20043;-76
2023/08/18 08:08:15;;;;;;;13.18;6.55;;;18.80;99.90;;;;;;5029647;28;20128;-75
2023/08/18 08:10:41;;;;;;;12.23;6.75;;;18.80;99.90;;;;;;5016285;28;20497;-76
2023/08/18 08:13:07;;;;;;;10.57;6.07;;;18.90;99.90;;;;;;5015737;28;20042;-75
2023/08/18 08:15:32;;;;;;;16.42;6.10;;;18.90;99.90;;;;;;5013536;28;20042;-76
2023/08/18 08:17:58;;;;;;;11.40;6.47;;;19.00;99.90;;;;;;5001816;28;20052;-76
2023/08/18 08:20:27;;;;;;;10.13;6.60;;;19.00;99.90;;;;;;5002864;28;20517;-78
2023/08/18 08:22:54;;;;;;;13.10;6.55;;;19.10;99.90;;;;;;5001715;28;20038;-78
2023/08/18 08:25:20;;;;;;;10.90;6.38;;;19.20;99.90;;;;;;5002140;28;20056;-77
2023/08/18 08:27:52;;;;;;;10.75;5.88;;;19.20;99.90;;;;;;5003007;28;20072;-77
2023/08/18 08:30:49;;;;;;;11.95;5.95;;;19.30;99.90;;;;;;5039892;28;20049;-76
2023/08/18 08:33:16;;;;;;;10.27;5.93;;;19.30;99.90;;;;;;4991929;28;20121;-76
2023/08/18 08:35:53;;;;;;;12.35;6.30;;;19.40;99.90;;;;;;5008593;28;20057;-76
2023/08/18 08:38:31;;;;;;;11.13;6.43;;;19.50;99.90;;;;;;4997749;28;20304;-77
2023/08/18 08:41:04;;;;;;;11.13;6.82;;;19.50;99.90;;;;;;4999750;28;20037;-76
2023/08/18 08:43:46;;;;;;;11.65;6.53;;;19.60;99.90;;;;;;5014401;28;20029;-76
2023/08/18 08:46:13;;;;;;;;;;;19.60;99.90;;;;;;5020405;28;20033;-76
2023/08/18 08:48:46;;;;;;;13.07;6.15;;;19.60;99.90;;;;;;4998924;28;19988;-77
2023/08/18 08:51:14;;;;;;;12.15;6.30;;;19.70;99.90;;;;;;5032813;28;20037;-77
2023/08/18 08:53:50;;;;;;;11.38;6.28;;;19.70;99.90;;;;;;5013717;28;20124;-77
2023/08/18 08:56:19;;;;;;;12.68;6.85;;;19.80;99.90;;;;;;5001189;28;20033;-77
2023/08/18 08:58:47;;;;;;;13.13;6.85;;;19.80;99.90;;;;;;4999227;28;20584;-77
2023/08/18 09:01:14;;;;;;;9.70;5.82;;;19.80;99.90;;;;;;5014780;28;20037;-77
2023/08/18 09:03:43;;;;;;;10.98;6.28;;;19.90;99.90;;;;;;5008482;28;20095;-77
2023/08/18 09:06:11;;;;;;;12.88;6.65;;;20.00;99.90;;;;;;4999881;28;20042;-77
2023/08/18 09:08:39;;;;;;;12.43;6.38;;;20.00;99.90;;;;;;4999173;28;20029;-77
2023/08/18 09:11:12;;;;;;;9.45;6.57;;;20.30;99.90;;;;;;5000770;28;20034;-77
2023/08/18 09:13:41;;;;;;;10.93;6.10;;;20.40;99.90;;;;;;4999239;28;20044;-77
2023/08/18 09:19:40;;;;;;;11.20;6.38;;;20.60;99.90;;;;;;5014812;28;20044;-76
2023/08/18 09:22:40;;;;;;;9.75;5.40;;;20.60;99.90;;;;;;5012402;28;20041;-77
2023/08/18 09:25:08;;;;;;;9.95;5.78;;;20.60;99.90;;;;;;5003642;28;20049;-75
2023/08/18 09:27:33;;;;;;;11.77;6.25;;;20.70;99.90;;;;;;5010757;28;20092;-76
2023/08/18 09:30:07;;;;;;;12.07;6.28;;;20.70;99.90;;;;;;5033966;28;20058;-76
2023/08/18 09:32:36;;;;;;;9.90;6.55;;;20.70;99.90;;;;;;4998858;28;20056;-74
2023/08/18 09:35:09;;;;;;;9.75;6.10;;;20.70;99.90;;;;;;4997646;28;20029;-76
2023/08/18 09:37:35;;;;;;;12.73;6.75;;;20.70;99.90;;;;;;5007357;28;20517;-76
2023/08/18 09:40:02;;;;;;;13.15;7.30;;;20.70;99.90;;;;;;5026312;28;20061;-76
2023/08/18 09:43:05;;;;;;;14.85;7.57;;;20.70;99.90;;;;;;5015576;28;20076;-77
2023/08/18 09:46:13;;;;;;;14.52;8.23;;;20.70;99.90;;;;;;5017462;28;20041;-76
2023/08/18 09:48:44;;;;;;;13.60;7.65;;;20.60;99.90;;;;;;5005268;28;20172;-74
2023/08/18 09:51:12;;;;;;;13.57;8.05;;;20.60;99.90;;;;;;4996632;28;20060;-78
2023/08/18 09:53:41;;;;;;;13.60;8.40;;;20.70;99.90;;;;;;4999848;28;20041;-76
2023/08/18 09:56:14;;;;;;;14.82;8.07;;;20.70;99.90;;;;;;4994680;28;20121;-76
2023/08/18 09:58:44;;;;;;;13.68;8.05;;;20.70;99.90;;;;;;4999105;28;20030;-76
2023/08/18 10:01:15;;;;;;;32.55;9.80;;;20.70;99.90;;;;;;4999952;28;20037;-77
2023/08/18 10:03:46;;;;;;;15.75;8.77;;;20.70;99.90;;;;;;4992005;28;20060;-78
2023/08/18 10:06:17;;;;;;;13.73;8.68;;;20.70;99.90;;;;;;4997350;28;20041;-77
2023/08/18 10:08:44;;;;;;;18.40;9.33;;;20.70;99.90;;;;;;4999102;28;20525;-78
2023/08/18 10:11:34;;;;;;;17.48;9.43;;;20.70;99.90;;;;;;4995591;28;20033;-78
2023/08/18 10:14:01;;;;;;;14.50;8.48;;;20.70;99.90;;;;;;4995463;28;20073;-77
2023/08/18 10:16:28;;;;;;;15.60;9.10;;;20.80;99.90;;;;;;4990353;28;20551;-77
2023/08/18 10:19:00;;;;;;;16.02;10.02;;;20.80;99.90;;;;;;4999066;28;20114;-78
2023/08/18 10:21:39;;;;;;;19.77;9.18;;;20.90;99.90;;;;;;4988955;28;20481;-77
2023/08/18 10:24:06;;;;;;;17.15;10.07;;;21.00;99.90;;;;;;4990339;28;20045;-78
2023/08/18 10:26:39;;;;;;;17.02;9.65;;;21.00;99.90;;;;;;4990932;28;20095;-77
2023/08/18 10:29:16;;;;;;;18.80;10.85;;;21.00;99.90;;;;;;4989515;28;20083;-77
2023/08/18 10:31:49;;;;;;;18.48;10.90;;;21.10;99.90;;;;;;4993553;28;20494;-78
2023/08/18 10:34:23;;;;;;;16.63;10.00;;;21.10;99.90;;;;;;4997726;28;20520;-77
2023/08/18 10:36:59;;;;;;;18.52;10.27;;;21.20;99.90;;;;;;4991351;28;20116;-77
2023/08/18 10:39:36;;;;;;;16.90;11.68;;;21.20;99.90;;;;;;5009056;28;20988;-78
2023/08/18 10:42:23;;;;;;;19.75;11.18;;;21.30;99.90;;;;;;4994662;28;20051;-77
2023/08/18 10:45:27;;;;;;;15.90;10.85;;;21.30;99.90;;;;;;5007151;28;20064;-78
2023/08/18 10:47:59;;;;;;;16.25;11.13;;;21.40;99.90;;;;;;5001244;28;20041;-78
2023/08/18 10:51:03;;;;;;;15.65;11.13;;;21.50;99.90;;;;;;5017309;28;20036;-78
2023/08/18 10:53:41;;;;;;;18.38;11.98;;;21.60;99.90;;;;;;4989244;28;20144;-78
2023/08/18 10:56:26;;;;;;;18.70;12.55;;;21.70;99.90;;;;;;5011458;28;20052;-78
2023/08/18 10:58:52;;;;;;;16.67;12.60;;;21.90;99.90;;;;;;4993315;28;20469;-78
2023/08/18 11:01:27;;;;;;;19.10;12.45;;;21.90;99.90;;;;;;5012592;28;20754;-78
2023/08/18 11:04:17;;;;;;;18.98;11.98;;;22.00;99.90;;;;;;5013995;28;20048;-78
2023/08/18 11:07:09;;;;;;;16.95;12.45;;;22.00;99.90;;;;;;5028326;28;20413;-78
2023/08/18 11:10:55;;;;;;;17.55;10.75;;;22.10;99.90;;;;;;4994543;28;20049;-78
2023/08/18 11:13:39;;;;;;;19.45;13.23;;;22.10;99.90;;;;;;4979748;28;20060;-79
2023/08/18 11:17:39;;;;;;;18.80;13.13;;;22.20;99.90;;;;;;5003398;28;20526;-78
2023/08/18 11:20:28;;;;;;;18.75;11.68;;;22.20;99.90;;;;;;5029749;28;20065;-78
2023/08/18 11:23:15;;;;;;;23.63;12.95;;;22.30;99.90;;;;;;4999164;28;20049;-78
2023/08/18 11:25:52;;;;;;;16.50;11.90;;;22.30;99.90;;;;;;5010765;28;20160;-77
2023/08/18 11:28:18;;;;;;;18.13;11.07;;;22.40;99.90;;;;;;4947126;28;1284397;-78
2023/08/18 11:30:45;;;;;;;16.95;11.80;;;22.50;99.90;;;;;;4997735;28;20042;-78
2023/08/18 11:33:19;;;;;;;15.82;11.43;;;22.60;99.90;;;;;;4993602;28;20091;-77
2023/08/18 11:36:26;;;;;;;16.10;10.30;;;22.70;99.90;;;;;;5007890;28;20512;-77
2023/08/18 11:39:07;;;;;;;18.60;11.85;;;23.00;99.90;;;;;;5002019;28;20030;-78
2023/08/18 11:41:42;;;;;;;13.57;10.25;;;23.10;99.90;;;;;;4983656;28;20049;-78
2023/08/18 11:44:10;;;;;;;17.75;11.38;;;23.30;99.90;;;;;;4995459;28;20037;-77
2023/08/18 11:46:41;;;;;;;15.98;11.05;;;23.50;99.90;;;;;;5000404;28;20037;-78
2023/08/18 11:52:43;;;;;;;13.50;9.65;;;23.60;99.90;;;;;;5025790;28;20099;-78
2023/08/18 11:55:09;;;;;;;12.98;9.43;;;23.60;99.90;;;;;;5018796;28;20037;-79
2023/08/18 11:57:35;;;;;;;17.38;11.77;;;23.70;99.90;;;;;;5019231;28;20033;-78
2023/08/18 12:00:10;;;;;;;16.05;12.20;;;23.90;99.90;;;;;;5012093;28;20041;-78
2023/08/18 12:02:43;;;;;;;;;;;24.10;99.90;;;;;;4997347;28;20050;-77
2023/08/18 12:05:23;;;;;;;13.15;10.52;;;24.30;99.90;;;;;;5000714;28;19936;-78
2023/08/18 12:07:51;;;;;;;13.98;10.98;;;24.60;99.90;;;;;;5013695;28;20099;-79
2023/08/18 12:10:18;;;;;;;13.82;11.05;;;24.60;99.90;;;;;;5004894;28;20041;-78
2023/08/18 12:12:54;;;;;;;14.95;10.63;;;24.60;99.90;;;;;;5003311;28;20069;-78
2023/08/18 12:19:04;;;;;;;15.68;12.38;;;24.90;99.90;;;;;;5025425;28;20045;-78
2023/08/18 12:21:44;;;;;;;15.32;11.30;;;25.10;99.90;;;;;;5011838;28;20121;-78
2023/08/18 12:24:25;;;;;;;14.73;11.07;;;25.40;99.90;;;;;;4999959;28;20065;-78
2023/08/18 12:26:51;;;;;;;15.00;10.63;;;25.60;99.90;;;;;;4996049;28;20059;-78
2023/08/18 12:29:16;;;;;;;;;;;25.80;99.90;;;;;;4997470;28;20452;-78
2023/08/18 12:31:42;;;;;;;17.10;12.80;;;25.90;99.90;;;;;;5013346;28;19959;-76
2023/08/18 12:34:07;;;;;;;13.10;10.18;;;26.00;99.90;;;;;;5025626;28;20116;-78
2023/08/18 12:36:33;;;;;;;13.15;10.38;;;26.10;99.90;;;;;;5012598;28;20034;-79
2023/08/18 12:38:59;;;;;;;15.07;10.80;;;26.30;99.90;;;;;;5027254;28;20030;-78
2023/08/18 12:41:28;;;;;;;13.18;10.27;;;26.40;99.90;;;;;;5007770;28;20566;-78
2023/08/18 12:43:56;;;;;;;14.45;11.38;;;26.60;99.90;;;;;;5008607;28;20038;-78
2023/08/18 12:46:22;;;;;;;15.48;12.40;;;26.60;99.90;;;;;;4994188;28;20080;-78
2023/08/18 12:48:48;;;;;;;16.67;14.43;;;26.60;99.90;;;;;;4996807;28;20045;-80
2023/08/18 12:51:18;;;;;;;14.75;12.90;;;26.60;99.90;;;;;;5016791;28;20497;-79
2023/08/18 12:53:44;;;;;;;17.33;13.95;;;26.50;99.90;;;;;;5011757;28;20056;-78
2023/08/18 12:56:10;;;;;;;17.13;11.77;;;26.40;99.90;;;;;;5016462;28;20037;-79
2023/08/18 12:58:36;;;;;;;13.65;12.05;;;26.30;99.90;;;;;;5036107;28;20038;-79
2023/08/18 13:01:03;;;;;;;16.60;12.93;;;26.10;99.90;;;;;;5017072;28;20065;-77
2023/08/18 13:03:29;;;;;;;18.98;13.82;;;26.10;99.90;;;;;;4994401;28;20065;-78
2023/08/18 13:05:57;;;;;;;15.50;12.85;;;26.00;99.90;;;;;;5016062;28;20037;-78
2023/08/18 13:08:25;;;;;;;16.30;13.45;;;26.00;99.90;;;;;;5033414;28;20080;-78
2023/08/18 13:10:52;;;;;;;14.10;11.90;;;26.00;99.90;;;;;;5030336;28;20442;-78